| # | | | Jméno Auto | Třída | Čas Penal. | Ods. Ods.př. | km/h s/km |
|---|
| 1. |  |  | Szabolcs Pipoly Fabia WRC 2005 | WRC | 17:13.26 | | 96.9   |
| 2. |  |  | fuz Subaru Impreza N11 | N4 | 18:02.25 00:10.00 | +48.99 +48.99 | 92.5 +1.76 |
| 3. | +1 |  | GENOVSKI Julian Mitsubishi Lancer Evo VII | WRC | 18:31.44 | +1:18.18 +29.19 | 90.0 +2.81 |
| 4. | -1 |  | Jocius Deivydas Citroen Xsara WRC 05 | WRC | 18:52.82 01:00.00 | +1:39.56 +21.38 | 88.3 +3.58 |
| 5. |  |  | marxx999 Citroen Xsara 2005 | WRC | 19:23.13 | +2:09.87 +30.31 | 86.0 +4.67 |
| 6. |  |  | Mario Varjacic (HR) Subaru Impreza 2005 | WRC | 19:23.64 01:00.00 | +2:10.38 +0.51 | 86.0 +4.69 |
| 7. |  |  | HRBACEK Michal Fabia WRC 2005 | WRC | 19:37.19 01:10.00 | +2:23.93 +13.55 | 85.0 +5.18 |
| 8. |  |  | Aigars SHULINS Mitsubishi Lancer Evo VI A | WRC | 19:51.69 03:00.00 | +2:38.43 +14.50 | 84.0 +5.70 |
| 9. |  |  | Alari Jüriöö Peugeot 307 WRC 2005 | WRC | 19:55.26 03:00.00 | +2:42.00 +3.57 | 83.7 +5.83 |
| 10. |  |  | KRATOCHVIL Roman Fabia WRC 2005 | WRC | 19:56.14 02:00.00 | +2:42.88 +0.88 | 83.7 +5.86 |
| 11. |  |  | JAROLIMEK Tomas Ford Focus 2004 WRC | WRC | 19:57.46 02:00.00 | +2:44.20 +1.32 | 83.6 +5.91 |
| 12. |  |  | Adamkus LT Citroen Xsara | WRC | 20:02.10 03:00.00 | +2:48.85 +4.65 | 83.3 +6.07 |
| 13. |  |  | RADOVIC Igor Citroen Xsara 2005 | WRC | 20:07.33 03:00.00 | +2:54.07 +5.22 | 82.9 +6.26 |
| 14. |  |  | Matz Sundstrom Mitsubishi Lancer Evo7 N4 | N4 | 20:08.43 03:00.00 | +2:55.17 +1.10 | 82.8 +6.30 |
| 15. |  |  | Ivan PETROV Subaru Impreza 2000 | WRC | 20:15.56 03:00.00 | +3:02.30 +7.13 | 82.3 +6.56 |
| 16. |  |  | BITTO Zsolti Peugeot 307 WRC 2005 | WRC | 20:23.32 03:00.00 | +3:10.06 +7.76 | 81.8 +6.84 |
| 17. | +1 |  | Jaco Peugeot 206 | WRC | 20:27.29 03:00.00 | +3:14.03 +3.97 | 81.5 +6.98 |
| 18. | +1 |  | SAUJANHOLM Linas Subaru Impreza 2006 WRC | WRC | 20:29.26 03:00.00 | +3:16.00 +1.97 | 81.4 +7.05 |
| 19. | +1 |  | ADOLT Lukas Mitsubishi Lancer Evo9 N4 | N4 | 20:29.57 03:00.00 | +3:16.31 +0.31 | 81.4 +7.06 |
| 20. | +1 |  | Jakub Adámek Mitsubishi Lancer Evo VII | WRC | 20:39.64 03:00.00 | +3:26.38 +10.07 | 80.7 +7.42 |
| 21. | +1 |  | kestass Citroen Xsara | WRC | 20:39.98 03:00.00 | +3:26.72 +0.34 | 80.7 +7.44 |
| 22. | +1 |  | Kourivka Martin Mitsubishi Lancer Evo VII | WRC | 20:40.70 03:00.00 | +3:27.44 +0.72 | 80.7 +7.46 |
| 23. | +1 |  | fading_ghost Citroen Xsara | WRC | 20:52.72 04:00.00 | +3:39.46 +12.02 | 79.9 +7.89 |
| = | +1 |  | CHLUD Radek Subaru Impreza N12 | N4 | 20:52.72 04:00.00 | +3:39.46 +0.00 | 79.9 +7.89 |
| = | +1 |  | ZILINSKAS Andrius Citroen Xsara 2005 | WRC | 20:52.72 04:00.00 | +3:39.46 +0.00 | 79.9 +7.89 |
| = | +1 |  | RUNIUS runius Subaru Impreza 2006 WRC | WRC | 20:52.72 04:00.00 | +3:39.46 +0.00 | 79.9 +7.89 |
| = | +1 |  | VIDMAR Bostjan Peugeot 2003 WRC | WRC | 20:52.72 04:00.00 | +3:39.46 +0.00 | 79.9 +7.89 |
| = | +1 |  | marcus Jansson_NotActive Fiat Punto Super 1600 | S1600 | 20:52.72 04:00.00 | +3:39.46 +0.00 | 79.9 +7.89 |
| = | +1 |  | garyson Subaru Impreza 2005 | WRC | 20:52.72 04:00.00 | +3:39.46 +0.00 | 79.9 +7.89 |
| 30. | +1 |  | McPitt Fabia WRC 2005 | WRC | 22:11.47 | +4:58.20 +1:18.75 | 75.2 +10.73 |
| 31. | +1 | | Lietuva-GO Peugeot 206 | WRC | 28:34.18 02:10.00 | +11:20.92 +6:22.71 | 58.4 +24.49 |